Time;durP1;ratioP1;P1;durP2;ratioP2;P2;SDS_P1;SDS_P2;PMS_P1;PMS_P2;Temp;Humidity;BMP_temperature;BMP_pressure;BME280_temperature;BME280_humidity;BME280_pressure;Samples;Min_cycle;Max_cycle;Signal;HPM_P1;HPM_P2
2023/10/29 00:01:15;;;;;;;4.35;2.72;;;;;;;10.00;100.00;98540.91;10295847;28;20399;-81
2023/10/29 00:06:18;;;;;;;6.32;3.65;;;;;;;10.06;100.00;98537.53;10298281;28;20063;-79
2023/10/29 00:11:23;;;;;;;5.68;3.72;;;;;;;10.05;100.00;98529.69;10294762;28;20057;-80
2023/10/29 00:16:26;;;;;;;4.10;2.83;;;;;;;10.14;100.00;98517.94;10296083;28;20042;-81
2023/10/29 00:21:30;;;;;;;3.75;2.30;;;;;;;10.01;100.00;98513.09;10299583;28;20043;-79
2023/10/29 00:26:35;;;;;;;2.97;1.40;;;;;;;9.99;100.00;98500.84;10299105;28;20458;-83
2023/10/29 00:31:38;;;;;;;1.00;1.00;;;;;;;10.26;100.00;98499.69;10296232;28;20042;-81
2023/10/29 00:36:41;;;;;;;2.00;1.13;;;;;;;10.09;100.00;98499.69;10304832;28;20483;-82
2023/10/29 00:41:46;;;;;;;1.88;1.67;;;;;;;10.22;100.00;98480.38;10303637;28;20118;-83
2023/10/29 00:46:49;;;;;;;2.72;1.08;;;;;;;10.17;100.00;98480.03;10314839;28;20059;-81
2023/10/29 00:51:53;;;;;;;1.83;1.15;;;;;;;10.22;100.00;98495.66;10307598;28;20065;-81
2023/10/29 00:56:57;;;;;;;2.03;1.20;;;;;;;10.28;100.00;98498.47;10322187;28;20047;-81
2023/10/29 01:02:01;;;;;;;1.65;1.15;;;;;;;10.35;100.00;98480.72;10299142;28;20047;-81
2023/10/29 01:07:04;;;;;;;3.38;1.35;;;;;;;10.37;100.00;98475.19;10323142;28;20047;-81
2023/10/29 01:12:16;;;;;;;2.33;1.40;;;;;;;10.28;100.00;98455.56;10287799;28;20031;-81
2023/10/29 01:17:21;;;;;;;4.00;1.27;;;;;;;10.15;100.00;98434.63;10288188;28;20042;-81
2023/10/29 01:22:24;;;;;;;2.30;2.10;;;;;;;10.17;100.00;98432.63;10292422;28;20054;-81
2023/10/29 01:27:29;;;;;;;3.03;1.40;;;;;;;10.32;100.00;98422.00;10293906;28;20482;-80
2023/10/29 01:32:32;;;;;;;1.85;1.45;;;;;;;10.37;100.00;98419.66;10297776;28;20047;-81
2023/10/29 01:37:36;;;;;;;1.52;1.30;;;;;;;10.45;100.00;98409.91;10297263;28;20450;-81
2023/10/29 01:42:40;;;;;;;1.77;1.10;;;;;;;10.39;100.00;98406.06;10282513;28;20051;-81
2023/10/29 01:47:43;;;;;;;1.58;1.10;;;;;;;10.40;100.00;98386.28;10299378;28;20051;-81
2023/10/29 01:52:47;;;;;;;1.38;1.27;;;;;;;10.50;100.00;98388.75;10298861;28;20062;-79
2023/10/29 01:57:52;;;;;;;1.25;1.13;;;;;;;10.59;100.00;98372.47;10280630;28;20035;-78
2023/10/29 02:02:55;;;;;;;2.15;1.00;;;;;;;10.52;100.00;98382.19;10293029;28;20106;-79
2023/10/29 02:07:58;;;;;;;2.33;0.95;;;;;;;10.65;100.00;98365.56;10289616;28;20558;-79
2023/10/29 02:13:02;;;;;;;2.45;1.20;;;;;;;10.75;100.00;98355.47;10279682;28;20050;-78
2023/10/29 02:18:05;;;;;;;2.13;1.05;;;;;;;10.76;100.00;98353.59;10309643;28;20041;-79
2023/10/29 02:23:13;;;;;;;0.95;0.70;;;;;;;10.76;100.00;98345.53;10324372;28;20058;-80
2023/10/29 02:28:16;;;;;;;1.75;1.00;;;;;;;10.84;100.00;98338.28;10308483;28;20044;-81
2023/10/29 02:33:19;;;;;;;2.33;1.00;;;;;;;10.81;100.00;98337.81;10297011;28;20115;-82
2023/10/29 02:38:23;;;;;;;1.38;1.00;;;;;;;10.88;100.00;98336.06;10302328;28;20039;-80
2023/10/29 02:43:26;;;;;;;2.25;1.05;;;;;;;10.75;100.00;98322.38;10299615;28;20069;-80
2023/10/29 02:48:29;;;;;;;1.13;0.90;;;;;;;10.97;100.00;98313.53;10297593;28;20053;-80
2023/10/29 02:53:34;;;;;;;1.05;0.60;;;;;;;10.83;100.00;98319.66;10293874;28;20054;-81
2023/10/29 02:58:37;;;;;;;2.03;0.88;;;;;;;10.84;100.00;98311.44;10299628;28;20594;-80
2023/10/29 03:03:40;;;;;;;2.67;0.80;;;;;;;10.88;100.00;98300.31;10326318;28;20035;-81
2023/10/29 03:08:44;;;;;;;1.02;0.93;;;;;;;10.80;100.00;98287.78;10307331;28;20050;-80
2023/10/29 03:13:47;;;;;;;1.08;0.73;;;;;;;10.95;100.00;98295.94;10287274;28;20051;-81
2023/10/29 03:18:50;;;;;;;2.60;0.80;;;;;;;10.98;100.00;98261.47;10290364;28;20038;-80
2023/10/29 03:23:54;;;;;;;2.20;0.63;;;;;;;11.13;100.00;98287.59;10329607;28;20054;-81
2023/10/29 03:28:57;;;;;;;1.00;0.70;;;;;;;10.88;100.00;98279.66;10299909;28;20322;-80
2023/10/29 03:34:00;;;;;;;4.03;1.13;;;;;;;11.06;100.00;98269.47;10304853;28;20055;-81
2023/10/29 03:39:05;;;;;;;1.65;0.95;;;;;;;11.00;100.00;98264.00;10290949;28;20074;-80
2023/10/29 03:44:08;;;;;;;2.38;0.88;;;;;;;11.02;100.00;98283.44;10297089;28;20046;-80
2023/10/29 03:49:15;;;;;;;1.90;0.68;;;;;;;10.99;100.00;98251.56;10285416;28;20050;-80
2023/10/29 03:54:20;;;;;;;2.20;0.60;;;;;;;11.00;100.00;98239.81;10292934;28;20049;-80
2023/10/29 03:59:22;;;;;;;1.33;0.77;;;;;;;11.04;100.00;98260.75;10297132;28;20054;-79
2023/10/29 04:04:25;;;;;;;2.38;0.90;;;;;;;11.08;100.00;98252.34;10304899;28;20097;-78
2023/10/29 04:09:30;;;;;;;2.88;0.80;;;;;;;10.76;100.00;98238.13;10296980;28;20068;-78
2023/10/29 04:14:33;;;;;;;3.13;1.00;;;;;;;11.08;100.00;98241.59;10295770;28;20138;-80
2023/10/29 04:19:36;;;;;;;1.08;0.75;;;;;;;11.24;100.00;98223.53;10303636;28;20051;-80
2023/10/29 04:24:40;;;;;;;1.95;1.00;;;;;;;11.30;100.00;98210.38;10309546;28;20043;-81
2023/10/29 04:29:44;;;;;;;0.85;0.80;;;;;;;11.21;100.00;98233.81;10308187;28;20048;-81
2023/10/29 04:34:47;;;;;;;5.47;1.10;;;;;;;11.22;100.00;98230.13;10295337;28;20414;-81
2023/10/29 04:39:51;;;;;;;2.58;0.90;;;;;;;11.30;100.00;98219.28;10291389;28;20082;-81
2023/10/29 04:44:54;;;;;;;2.58;1.02;;;;;;;11.11;100.00;98207.16;10297648;28;20057;-80
2023/10/29 04:49:57;;;;;;;2.45;1.45;;;;;;;11.19;100.00;98182.94;10289810;28;20362;-81
2023/10/29 04:55:01;;;;;;;1.08;0.88;;;;;;;11.01;100.00;98174.34;10295797;28;20050;-81
2023/10/29 05:00:05;;;;;;;4.70;1.40;;;;;;;11.04;100.00;98225.00;10298502;28;20418;-80
2023/10/29 05:05:10;;;;;;;1.67;0.85;;;;;;;11.18;100.00;98231.47;10298477;28;20058;-80
2023/10/29 05:10:15;;;;;;;1.40;0.90;;;;;;;11.02;100.00;98216.28;10284638;28;20057;-81
2023/10/29 05:15:17;;;;;;;1.92;0.88;;;;;;;11.32;100.00;98214.56;10289296;28;20122;-80
2023/10/29 05:20:20;;;;;;;3.10;1.50;;;;;;;11.19;100.00;98217.00;10308933;28;20070;-80
2023/10/29 05:25:27;;;;;;;6.40;1.17;;;;;;;11.17;100.00;98257.50;10314162;28;20086;-82
2023/10/29 05:30:30;;;;;;;0.93;0.70;;;;;;;11.06;100.00;98233.72;10298800;28;20049;-80
2023/10/29 05:35:32;;;;;;;1.27;0.70;;;;;;;11.30;100.00;98235.41;10294831;28;20043;-81
2023/10/29 05:40:37;;;;;;;3.13;1.42;;;;;;;11.22;100.00;98209.44;10300800;28;20055;-80
2023/10/29 05:45:40;;;;;;;2.72;0.98;;;;;;;11.16;100.00;98229.00;10291892;28;20058;-79
2023/10/29 05:50:43;;;;;;;1.95;0.98;;;;;;;11.24;100.00;98236.97;10320865;28;20042;-80
2023/10/29 05:55:47;;;;;;;1.40;1.05;;;;;;;11.28;100.00;98242.81;10302958;28;20078;-80
2023/10/29 06:00:51;;;;;;;1.65;0.75;;;;;;;11.40;100.00;98246.72;10298816;28;20038;-80
2023/10/29 06:05:54;;;;;;;1.95;0.73;;;;;;;11.40;100.00;98248.59;10310689;28;20091;-81
2023/10/29 06:10:59;;;;;;;1.45;0.90;;;;;;;11.69;99.08;98272.84;10307680;28;20050;-80
2023/10/29 06:16:07;;;;;;;3.33;0.88;;;;;;;11.83;98.07;98273.91;10319738;28;20492;-80
2023/10/29 06:21:10;;;;;;;1.52;1.05;;;;;;;11.87;97.58;98275.19;10302643;28;20026;-79
2023/10/29 06:26:15;;;;;;;1.35;1.08;;;;;;;11.86;96.60;98276.22;10303574;28;20042;-82
2023/10/29 06:31:18;;;;;;;2.40;0.80;;;;;;;12.04;94.70;98278.56;10295123;28;20106;-80
2023/10/29 06:36:21;;;;;;;2.03;0.55;;;;;;;12.10;93.85;98274.28;10298144;28;20070;-79
2023/10/29 06:41:25;;;;;;;4.22;0.70;;;;;;;12.24;92.44;98280.69;10303721;28;20852;-79
2023/10/29 06:46:28;;;;;;;0.95;0.40;;;;;;;12.38;90.60;98285.25;10314638;28;20039;-79
2023/10/29 06:51:31;;;;;;;1.23;0.55;;;;;;;12.42;89.98;98270.38;10289252;28;20533;-78
2023/10/29 06:56:35;;;;;;;2.17;0.70;;;;;;;12.50;89.46;98264.91;10288180;28;20386;-79
2023/10/29 07:01:38;;;;;;;2.35;0.73;;;;;;;12.42;89.60;98275.78;10298945;28;20061;-79
2023/10/29 07:06:41;;;;;;;1.88;0.85;;;;;;;12.54;88.77;98274.28;10294046;28;20045;-79
2023/10/29 07:11:47;;;;;;;1.08;0.50;;;;;;;12.73;87.15;98275.56;10284786;28;20491;-79
2023/10/29 07:16:50;;;;;;;1.52;0.50;;;;;;;12.62;86.51;98288.69;10294172;28;20043;-80
2023/10/29 07:21:53;;;;;;;4.38;1.00;;;;;;;12.83;85.91;98286.88;10274607;28;20057;-78
2023/10/29 07:26:57;;;;;;;1.90;0.63;;;;;;;13.11;84.76;98305.00;10291561;28;20039;-79
2023/10/29 07:32:00;;;;;;;0.85;0.57;;;;;;;12.99;84.79;98284.94;10296523;28;20047;-79
2023/10/29 07:37:03;;;;;;;0.50;0.50;;;;;;;12.77;84.38;98302.94;10304166;28;20031;-79
2023/10/29 07:42:08;;;;;;;0.30;0.28;;;;;;;12.62;84.94;98318.31;10312650;28;20053;-79
2023/10/29 07:47:11;;;;;;;1.52;0.80;;;;;;;12.83;83.53;98324.59;10286739;28;20046;-80
2023/10/29 07:52:15;;;;;;;1.35;0.50;;;;;;;12.69;83.83;98319.19;10306554;28;20065;-78
2023/10/29 07:57:21;;;;;;;5.32;0.88;;;;;;;13.03;82.10;98322.09;10299683;28;20055;-78
2023/10/29 08:02:24;;;;;;;1.85;0.68;;;;;;;13.13;82.12;98313.69;10304003;28;20301;-78
2023/10/29 08:07:29;;;;;;;1.65;0.70;;;;;;;13.17;80.35;98335.75;10308633;28;20065;-77
2023/10/29 08:12:34;;;;;;;1.35;0.57;;;;;;;13.03;80.69;98343.66;10307597;28;20039;-80
2023/10/29 08:17:37;;;;;;;1.63;0.60;;;;;;;13.22;80.49;98344.09;10312089;28;20058;-80
2023/10/29 08:22:40;;;;;;;1.42;0.60;;;;;;;13.28;78.55;98346.84;10326134;28;20130;-79
2023/10/29 08:27:48;;;;;;;4.70;0.70;;;;;;;13.04;79.76;98342.63;10327959;28;20676;-78
2023/10/29 08:32:51;;;;;;;0.50;0.40;;;;;;;13.15;79.27;98352.09;10302073;28;20058;-80
2023/10/29 08:37:54;;;;;;;0.90;0.47;;;;;;;13.38;78.07;98318.75;10285440;28;20090;-80
2023/10/29 08:42:59;;;;;;;1.83;0.80;;;;;;;13.82;76.37;98359.03;10306875;28;20122;-79
2023/10/29 08:48:02;;;;;;;10.07;1.05;;;;;;;13.87;74.77;98380.00;10289984;28;20079;-80
2023/10/29 08:53:05;;;;;;;3.03;0.52;;;;;;;13.51;76.01;98424.06;10286377;28;20074;-80
2023/10/29 08:58:11;;;;;;;1.17;0.60;;;;;;;13.79;76.50;98409.81;10290282;28;20057;-78
2023/10/29 09:03:15;;;;;;;2.22;1.13;;;;;;;13.59;76.29;98402.38;10302997;28;20084;-79
2023/10/29 09:08:18;;;;;;;2.03;0.60;;;;;;;13.83;75.49;98411.94;10287384;28;20779;-78
2023/10/29 09:13:23;;;;;;;3.60;0.50;;;;;;;13.98;74.17;98400.22;10297836;28;20094;-79
2023/10/29 09:18:26;;;;;;;0.70;0.38;;;;;;;13.91;74.12;98394.78;10301321;28;20049;-79
2023/10/29 09:23:29;;;;;;;1.15;0.50;;;;;;;14.20;73.26;98422.63;10322505;28;20046;-80
2023/10/29 09:28:34;;;;;;;0.98;0.40;;;;;;;14.35;72.56;98451.22;10292787;28;20039;-78
2023/10/29 09:33:38;;;;;;;2.10;0.60;;;;;;;14.25;72.87;98445.31;10291964;28;20043;-80
2023/10/29 09:38:42;;;;;;;0.60;0.40;;;;;;;13.86;73.34;98470.09;10293846;28;20062;-79
2023/10/29 09:43:47;;;;;;;0.90;0.30;;;;;;;13.93;72.83;98452.94;10328133;28;20054;-80
2023/10/29 09:48:51;;;;;;;2.90;0.55;;;;;;;14.34;71.94;98457.66;10316354;28;20094;-81
2023/10/29 09:53:57;;;;;;;0.68;0.40;;;;;;;13.98;73.03;98468.53;10292890;28;20085;-80
2023/10/29 09:59:04;;;;;;;0.35;0.32;;;;;;;14.25;72.99;98468.78;10325244;28;20070;-79
2023/10/29 10:04:07;;;;;;;4.38;0.55;;;;;;;14.32;71.59;98464.28;10291877;28;20577;-79
2023/10/29 10:09:13;;;;;;;1.20;0.52;;;;;;;14.20;72.25;98482.88;10301878;28;20554;-79
2023/10/29 10:14:27;;;;;;;0.55;0.43;;;;;;;14.13;72.22;98490.91;10325107;28;20051;-79
2023/10/29 10:19:30;;;;;;;5.47;0.95;;;;;;;14.61;69.66;98482.19;10299133;28;20094;-79
2023/10/29 10:24:38;;;;;;;2.17;0.22;;;;;;;14.83;68.17;98459.47;10295237;28;20117;-78
2023/10/29 10:29:42;;;;;;;0.95;0.60;;;;;;;14.42;69.83;98477.47;10295314;28;20030;-79
2023/10/29 10:34:52;;;;;;;1.20;0.30;;;;;;;14.38;70.54;98472.47;10295785;28;20150;-79
2023/10/29 10:39:54;;;;;;;0.50;0.32;;;;;;;14.24;70.73;98473.38;10297966;28;20054;-80
2023/10/29 10:45:01;;;;;;;2.30;0.30;;;;;;;14.69;69.86;98448.78;10289690;28;20105;-79
2023/10/29 10:50:04;;;;;;;1.33;0.30;;;;;;;14.26;70.96;98471.31;10319806;28;20027;-80
2023/10/29 10:55:08;;;;;;;3.85;0.40;;;;;;;16.06;64.30;98451.41;10334560;28;20089;-80
2023/10/29 11:00:33;;;;;;;1.50;0.50;;;;;;;16.55;63.48;98460.22;10288643;28;20530;-80
2023/10/29 11:05:36;;;;;;;4.20;0.50;;;;;;;17.35;61.03;98471.72;10285277;28;20058;-79
2023/10/29 11:10:40;;;;;;;2.17;0.40;;;;;;;16.70;60.89;98457.25;10285518;28;20055;-79
2023/10/29 11:15:48;;;;;;;0.70;0.30;;;;;;;17.29;61.13;98439.22;10296401;28;20094;-79
2023/10/29 11:20:55;;;;;;;2.45;0.50;;;;;;;15.67;62.56;98452.19;10289422;28;20083;-78
2023/10/29 11:26:20;;;;;;;0.70;0.70;;;;;;;15.83;64.46;98453.69;10295184;28;20083;-78
2023/10/29 11:31:26;;;;;;;0.95;0.60;;;;;;;16.10;64.07;98432.91;10291074;28;20050;-78
2023/10/29 11:36:31;;;;;;;2.08;0.50;;;;;;;16.28;62.34;98445.84;10298110;28;20042;-79
2023/10/29 11:41:35;;;;;;;0.95;0.35;;;;;;;15.51;64.47;98472.31;10284160;28;20094;-80
2023/10/29 11:47:04;;;;;;;0.73;0.50;;;;;;;15.56;65.57;98459.03;10305392;28;20099;-80
2023/10/29 11:52:07;;;;;;;1.85;0.52;;;;;;;15.04;67.01;98473.97;10301062;28;20059;-80
2023/10/29 11:57:10;;;;;;;1.15;0.40;;;;;;;15.14;66.81;98462.75;10295147;28;20110;-79
2023/10/29 12:02:16;;;;;;;3.25;0.63;;;;;;;15.39;65.00;98476.66;10284158;28;20051;-79
2023/10/29 12:07:29;;;;;;;2.35;0.57;;;;;;;17.34;59.57;98469.25;10318384;28;20039;-79
2023/10/29 12:12:36;;;;;;;1.15;0.40;;;;;;;16.18;61.62;98469.75;10321481;28;20077;-80
2023/10/29 12:17:45;;;;;;;2.00;0.60;;;;;;;14.70;65.95;98470.22;10288293;28;20054;-78
2023/10/29 12:22:53;;;;;;;0.55;0.30;;;;;;;14.69;65.33;98459.59;10292056;28;20043;-79
2023/10/29 12:27:56;;;;;;;0.88;0.30;;;;;;;14.91;64.98;98458.50;10283923;28;20062;-79
2023/10/29 12:33:22;;;;;;;0.77;0.45;;;;;;;15.38;63.40;98453.34;10285881;28;20058;-79
2023/10/29 12:38:26;;;;;;;1.38;0.50;;;;;;;15.19;64.42;98452.19;10272830;28;20438;-78
2023/10/29 12:43:36;;;;;;;2.05;0.50;;;;;;;14.92;65.60;98437.69;10296779;28;20066;-81
2023/10/29 12:48:59;;;;;;;1.08;0.40;;;;;;;15.23;64.62;98418.31;10298816;28;20050;-81
2023/10/29 12:54:13;;;;;;;3.28;0.63;;;;;;;16.21;61.56;98405.19;10298020;28;20048;-79
2023/10/29 12:59:18;;;;;;;2.03;0.65;;;;;;;16.22;61.94;98412.25;10300084;28;20043;-79
2023/10/29 13:04:23;;;;;;;0.73;0.38;;;;;;;14.80;67.28;98424.75;10310256;28;20447;-79
2023/10/29 13:09:28;;;;;;;0.80;0.40;;;;;;;14.44;69.81;98413.31;10298361;28;20050;-79
2023/10/29 13:14:33;;;;;;;2.42;0.70;;;;;;;14.65;69.43;98410.53;10322261;28;20099;-81
2023/10/29 13:19:38;;;;;;;2.97;0.57;;;;;;;15.01;68.73;98402.19;10332166;28;20047;-79
2023/10/29 13:24:40;;;;;;;1.33;0.57;;;;;;;14.74;70.19;98398.53;10314258;28;20102;-78
2023/10/29 13:29:43;;;;;;;1.48;0.43;;;;;;;14.35;72.05;98402.63;10306320;28;20547;-79
2023/10/29 13:34:48;;;;;;;0.95;0.40;;;;;;;14.37;72.66;98391.59;10303916;28;20062;-80
2023/10/29 13:39:52;;;;;;;0.80;0.65;;;;;;;14.48;72.83;98390.25;10295096;28;20043;-79
2023/10/29 13:44:55;;;;;;;2.22;0.85;;;;;;;14.60;73.50;98392.22;10308330;28;20066;-79
2023/10/29 13:50:01;;;;;;;2.13;0.50;;;;;;;14.42;74.88;98416.19;10296588;28;20039;-80
2023/10/29 13:55:05;;;;;;;1.80;0.68;;;;;;;14.36;75.88;98425.88;10293337;28;20054;-80
2023/10/29 14:00:09;;;;;;;3.55;1.08;;;;;;;14.15;77.08;98439.41;10299912;28;20070;-80
2023/10/29 14:05:17;;;;;;;1.33;0.63;;;;;;;14.21;76.40;98433.25;10307501;28;20499;-80
2023/10/29 14:10:20;;;;;;;0.60;0.60;;;;;;;13.88;80.61;98398.72;10298330;28;20458;-80
2023/10/29 14:15:23;;;;;;;1.15;0.65;;;;;;;14.35;80.35;98372.09;10297827;28;20482;-79
2023/10/29 14:20:29;;;;;;;4.18;1.23;;;;;;;14.21;83.16;98365.75;10298378;28;20063;-80
2023/10/29 14:25:32;;;;;;;3.03;0.77;;;;;;;13.89;83.76;98351.78;10294270;28;20047;-80
2023/10/29 14:30:36;;;;;;;1.58;0.75;;;;;;;13.63;83.90;98359.66;10307665;28;20062;-80
2023/10/29 14:35:44;;;;;;;1.02;0.88;;;;;;;13.28;84.27;98365.72;10296860;28;20082;-81
2023/10/29 14:40:51;;;;;;;1.90;0.60;;;;;;;13.46;83.25;98340.19;10300860;28;20043;-80
2023/10/29 14:45:55;;;;;;;2.15;1.55;;;;;;;13.50;82.86;98368.47;10299837;28;20107;-80
2023/10/29 14:51:04;;;;;;;0.85;0.50;;;;;;;13.13;84.03;98340.66;10291951;28;20038;-80
2023/10/29 14:56:07;;;;;;;2.55;1.75;;;;;;;13.11;84.22;98356.19;10297340;28;20601;-79
2023/10/29 15:01:10;;;;;;;2.25;0.80;;;;;;;13.18;83.40;98353.56;10308082;28;20046;-80
2023/10/29 15:06:15;;;;;;;0.95;0.50;;;;;;;13.13;83.16;98347.91;10304758;28;20054;-81
2023/10/29 15:11:19;;;;;;;1.25;0.90;;;;;;;13.28;82.23;98338.75;10283776;28;20043;-81
2023/10/29 15:16:38;;;;;;;2.00;0.73;;;;;;;13.33;82.68;98345.41;10299631;28;20066;-81
2023/10/29 15:21:42;;;;;;;1.63;1.10;;;;;;;13.13;82.56;98321.78;10290120;28;20047;-79
2023/10/29 15:26:45;;;;;;;2.10;0.47;;;;;;;13.20;81.38;98292.22;10301033;28;20051;-80
2023/10/29 15:31:48;;;;;;;1.55;0.80;;;;;;;13.30;80.93;98316.16;10299489;28;20050;-81
2023/10/29 15:36:52;;;;;;;1.95;0.47;;;;;;;13.15;81.39;98298.19;10291475;28;20043;-79
2023/10/29 15:41:55;;;;;;;0.50;0.50;;;;;;;13.24;80.80;98288.09;10275313;28;20738;-80
2023/10/29 15:46:59;;;;;;;0.40;0.40;;;;;;;12.90;82.37;98304.97;10304230;28;20050;-80
2023/10/29 15:52:04;;;;;;;2.65;0.45;;;;;;;12.96;82.32;98306.88;10322201;28;20058;-78
2023/10/29 15:57:07;;;;;;;1.05;0.77;;;;;;;13.00;81.71;98309.03;10306885;28;20047;-77
2023/10/29 16:02:10;;;;;;;0.70;0.40;;;;;;;12.94;81.47;98309.75;10313167;28;20038;-80
2023/10/29 16:07:15;;;;;;;1.42;0.50;;;;;;;13.10;81.01;98273.66;10309280;28;20051;-81
2023/10/29 16:12:18;;;;;;;0.80;0.40;;;;;;;13.08;80.21;98296.44;10300470;28;20073;-80
2023/10/29 16:17:21;;;;;;;0.55;0.50;;;;;;;12.90;80.91;98272.63;10301417;28;20079;-80
2023/10/29 16:22:26;;;;;;;0.98;0.60;;;;;;;12.99;80.41;98312.72;10312746;28;20055;-80
2023/10/29 16:27:29;;;;;;;0.82;0.40;;;;;;;12.76;81.22;98329.03;10296835;28;20085;-79
2023/10/29 16:32:36;;;;;;;1.98;0.40;;;;;;;12.92;79.67;98322.59;10302140;28;20035;-80
2023/10/29 16:37:40;;;;;;;0.75;0.47;;;;;;;12.69;80.63;98303.03;10308674;28;20121;-81
2023/10/29 16:42:43;;;;;;;1.23;0.50;;;;;;;12.96;79.39;98323.06;10305618;28;20081;-80
2023/10/29 16:47:46;;;;;;;1.08;0.60;;;;;;;12.99;78.44;98333.44;10325004;28;20030;-80
2023/10/29 16:52:51;;;;;;;1.08;0.60;;;;;;;12.94;78.39;98331.31;10331205;28;20434;-80
2023/10/29 16:57:54;;;;;;;1.25;0.60;;;;;;;12.66;79.19;98360.81;10314380;28;20038;-81
2023/10/29 17:02:57;;;;;;;0.98;0.30;;;;;;;13.12;76.84;98349.78;10307812;28;20041;-79
2023/10/29 17:08:02;;;;;;;2.10;0.63;;;;;;;12.85;77.50;98366.66;10299124;28;20070;-80
2023/10/29 17:13:05;;;;;;;1.05;0.50;;;;;;;12.94;76.55;98358.25;10284892;28;20042;-81
2023/10/29 17:18:08;;;;;;;1.38;0.20;;;;;;;12.77;76.45;98403.44;10300975;28;20046;-78
2023/10/29 17:23:14;;;;;;;0.88;0.40;;;;;;;12.96;75.79;98387.72;10300388;28;20122;-79
2023/10/29 17:28:17;;;;;;;1.13;0.30;;;;;;;12.88;76.23;98398.59;10303597;28;20097;-79
2023/10/29 17:33:21;;;;;;;0.88;0.40;;;;;;;12.83;76.12;98405.41;10292747;28;20138;-79
2023/10/29 17:38:26;;;;;;;2.53;0.50;;;;;;;12.69;76.43;98414.31;10305286;28;20081;-79
2023/10/29 17:43:29;;;;;;;0.63;0.50;;;;;;;12.75;76.31;98440.53;10295410;28;20043;-78
2023/10/29 17:48:32;;;;;;;1.63;0.60;;;;;;;12.79;76.35;98439.13;10303549;28;20121;-80
2023/10/29 17:53:36;;;;;;;2.72;0.60;;;;;;;12.87;76.77;98445.44;10302928;28;20074;-80
2023/10/29 17:58:39;;;;;;;0.88;0.47;;;;;;;12.81;76.11;98463.19;10308131;28;20143;-79
2023/10/29 18:03:43;;;;;;;0.70;0.40;;;;;;;12.71;76.42;98465.31;10285465;28;20051;-79
2023/10/29 18:08:49;;;;;;;3.75;0.52;;;;;;;12.50;76.88;98450.69;10297121;28;20046;-80
2023/10/29 18:13:52;;;;;;;0.43;0.30;;;;;;;12.67;75.80;98469.38;10296055;28;20050;-79
2023/10/29 18:18:55;;;;;;;0.65;0.50;;;;;;;12.63;75.87;98458.16;10288736;28;20055;-80
2023/10/29 18:23:59;;;;;;;0.95;0.50;;;;;;;12.45;76.77;98452.25;10325074;28;20271;-80
2023/10/29 18:29:02;;;;;;;3.13;0.45;;;;;;;12.43;76.46;98460.53;10310288;28;20070;-80
2023/10/29 18:34:06;;;;;;;0.88;0.40;;;;;;;12.47;76.37;98472.59;10305603;28;20046;-80
2023/10/29 18:39:10;;;;;;;1.00;0.52;;;;;;;12.54;75.41;98470.88;10301458;28;20051;-79
2023/10/29 18:44:13;;;;;;;2.03;0.50;;;;;;;12.45;75.66;98481.88;10290222;28;20043;-79
2023/10/29 18:49:16;;;;;;;4.15;0.50;;;;;;;12.58;74.57;98479.41;10292213;28;20094;-79
2023/10/29 18:54:20;;;;;;;2.28;0.40;;;;;;;12.19;76.19;98491.16;10302248;28;20055;-79
2023/10/29 18:59:23;;;;;;;0.85;0.40;;;;;;;12.35;75.51;98480.28;10311042;28;20043;-80
2023/10/29 19:04:26;;;;;;;2.28;0.40;;;;;;;11.99;76.39;98514.22;10307989;28;20046;-79
2023/10/29 19:09:31;;;;;;;3.33;0.32;;;;;;;12.21;75.49;98502.59;10291631;28;20047;-79
2023/10/29 19:14:35;;;;;;;1.90;0.28;;;;;;;11.98;76.02;98524.09;10303931;28;20066;-79
2023/10/29 19:19:40;;;;;;;1.00;0.52;;;;;;;12.01;76.70;98510.28;10287174;28;20039;-80
2023/10/29 19:24:44;;;;;;;0.65;0.47;;;;;;;11.91;76.85;98526.69;10301061;28;20040;-79
2023/10/29 19:29:47;;;;;;;0.73;0.38;;;;;;;11.93;76.62;98513.91;10300704;28;20035;-81
2023/10/29 19:34:51;;;;;;;0.63;0.43;;;;;;;12.35;74.55;98514.47;10300951;28;20190;-80
2023/10/29 19:39:57;;;;;;;0.82;0.30;;;;;;;12.03;76.13;98523.59;10303482;28;20051;-80
2023/10/29 19:45:03;;;;;;;2.35;0.45;;;;;;;11.81;76.77;98542.22;10300666;28;20070;-80
2023/10/29 19:50:08;;;;;;;3.75;0.60;;;;;;;12.04;75.57;98577.25;10307746;28;20046;-80
2023/10/29 19:55:13;;;;;;;3.00;0.80;;;;;;;12.09;75.64;98530.94;10307999;28;20043;-80
2023/10/29 20:00:19;;;;;;;0.73;0.50;;;;;;;12.15;75.11;98541.84;10295268;28;20043;-80
2023/10/29 20:05:22;;;;;;;1.13;0.50;;;;;;;11.91;76.00;98568.91;10302072;28;20103;-79
2023/10/29 20:10:27;;;;;;;0.77;0.32;;;;;;;12.04;75.55;98579.06;10313725;28;20105;-82
2023/10/29 20:15:30;;;;;;;1.40;0.40;;;;;;;11.95;75.55;98575.59;10297765;28;20057;-80
2023/10/29 20:20:37;;;;;;;1.88;0.55;;;;;;;12.08;75.45;98604.63;10328836;28;20050;-80
2023/10/29 20:25:42;;;;;;;3.00;0.60;;;;;;;12.24;73.55;98606.38;10327345;28;20054;-81
2023/10/29 20:30:45;;;;;;;1.38;0.63;;;;;;;12.28;73.93;98619.31;10317241;28;20047;-80
2023/10/29 20:35:48;;;;;;;3.30;0.52;;;;;;;12.14;74.31;98663.13;10307056;28;20122;-80
2023/10/29 20:40:52;;;;;;;2.40;0.75;;;;;;;12.24;73.68;98626.06;10298988;28;20051;-80
2023/10/29 20:45:55;;;;;;;2.65;0.70;;;;;;;12.23;73.39;98620.84;10306851;28;20125;-80
2023/10/29 20:51:00;;;;;;;0.70;0.30;;;;;;;12.20;73.62;98646.25;10309621;28;20039;-79
2023/10/29 20:56:06;;;;;;;2.42;1.05;;;;;;;12.54;72.41;98642.38;10316160;28;20082;-80
2023/10/29 21:01:09;;;;;;;2.08;0.40;;;;;;;12.20;73.00;98662.41;10314666;28;20070;-80
2023/10/29 21:06:12;;;;;;;3.63;0.70;;;;;;;12.64;72.09;98656.44;10306611;28;20077;-80
2023/10/29 21:11:23;;;;;;;2.97;0.40;;;;;;;12.16;73.02;98664.63;10304754;28;20047;-81
2023/10/29 21:16:26;;;;;;;1.48;0.60;;;;;;;12.19;72.70;98676.88;10304990;28;20051;-81
2023/10/29 21:21:30;;;;;;;2.92;0.60;;;;;;;12.33;72.71;98689.63;10291188;28;20142;-80
2023/10/29 21:26:35;;;;;;;4.55;0.70;;;;;;;12.43;71.82;98678.63;10301195;28;20082;-80
2023/10/29 21:31:38;;;;;;;3.88;0.70;;;;;;;12.44;71.76;98690.25;10299542;28;20043;-80
2023/10/29 21:36:41;;;;;;;1.80;0.50;;;;;;;12.10;72.82;98711.06;10298336;28;20070;-80
2023/10/29 21:41:45;;;;;;;2.40;0.70;;;;;;;12.09;72.45;98714.75;10305093;28;20040;-80
2023/10/29 21:46:48;;;;;;;4.05;0.60;;;;;;;12.21;72.40;98720.63;10305309;28;20117;-79
2023/10/29 21:51:51;;;;;;;4.38;0.57;;;;;;;12.28;71.84;98721.59;10308629;28;20495;-80
2023/10/29 21:56:56;;;;;;;3.60;0.75;;;;;;;12.16;71.82;98715.75;10309435;28;20075;-80
2023/10/29 22:01:59;;;;;;;4.15;0.85;;;;;;;12.36;71.75;98740.41;10302768;28;20043;-78
2023/10/29 22:07:01;;;;;;;2.13;0.70;;;;;;;12.30;71.46;98754.59;10310208;28;20046;-79
2023/10/29 22:12:06;;;;;;;1.58;0.68;;;;;;;12.29;71.81;98750.22;10311496;28;20066;-80
2023/10/29 22:17:13;;;;;;;3.63;0.95;;;;;;;12.54;70.57;98755.50;10301612;28;20707;-80
2023/10/29 22:22:16;;;;;;;3.22;0.80;;;;;;;12.53;70.58;98765.44;10304052;28;20067;-81
2023/10/29 22:27:21;;;;;;;5.63;1.13;;;;;;;12.38;71.66;98770.69;10296471;28;20065;-80
2023/10/29 22:32:26;;;;;;;2.67;1.00;;;;;;;12.38;71.44;98777.94;10299749;28;20047;-82
2023/10/29 22:37:29;;;;;;;5.20;1.25;;;;;;;12.29;71.77;98779.00;10292556;28;20043;-81
2023/10/29 22:42:33;;;;;;;5.18;0.80;;;;;;;12.26;71.62;98784.69;10290734;28;20047;-81
2023/10/29 22:47:36;;;;;;;9.73;1.20;;;;;;;12.31;72.08;98793.09;10300145;28;20054;-79
2023/10/29 22:52:41;;;;;;;1.75;0.73;;;;;;;12.24;72.15;98805.56;10298238;28;20046;-79
2023/10/29 22:57:48;;;;;;;7.03;0.90;;;;;;;11.94;73.62;98808.00;10281020;28;20086;-78
2023/10/29 23:02:52;;;;;;;7.55;1.15;;;;;;;12.11;73.04;98825.78;10290962;28;20066;-81
2023/10/29 23:07:56;;;;;;;9.05;1.15;;;;;;;12.15;72.83;98815.53;10300733;28;20118;-80
2023/10/29 23:13:00;;;;;;;5.57;0.88;;;;;;;11.92;73.34;98820.78;10299633;28;20047;-80
2023/10/29 23:18:06;;;;;;;2.45;0.60;;;;;;;11.93;74.05;98826.00;10299074;28;20059;-79
2023/10/29 23:23:15;;;;;;;2.40;0.60;;;;;;;11.53;75.69;98839.47;10318281;28;20034;-81
2023/10/29 23:28:20;;;;;;;2.20;0.63;;;;;;;11.46;76.15;98837.47;10305733;28;20082;-80
2023/10/29 23:33:40;;;;;;;5.40;1.42;;;;;;;11.47;76.35;98849.06;10301082;28;20058;-80